Terminal Aerodrome Forecast
Issued by NWS

Home | Current Version | Previous Version | Text Only | Print | Product List | Glossary On
Versions: 1 2 3 4 5 6 7 8 9 10 11 12 13 14 15 16 17
000
FTUS41 KBOX 061131
TAFFMH
TAF
KFMH 061131Z 0612/0712 34006KT P6SM FEW250
     FM061700 03006KT P6SM SCT200
     FM070000 08004KT P6SM BKN100
     FM070500 07005KT P6SM -RASN OVC040=

USA.gov is the U.S. government's official web portal to all federal, state and local government web resources and services.